createdAt,value
2018-08-13T00:00:28.126Z,1004.17
2018-08-13T00:01:28.165Z,1004.14
2018-08-13T00:03:28.223Z,1004.11
2018-08-13T00:05:28.637Z,1004.12
2018-08-13T00:06:28.370Z,1004.09
2018-08-13T00:07:28.347Z,1004.13
2018-08-13T00:08:28.441Z,1004.09
2018-08-13T00:09:28.417Z,1004.04
2018-08-13T00:11:28.478Z,1004.03
2018-08-13T00:12:28.872Z,1004.01
2018-08-13T00:14:28.631Z,1003.97
2018-08-13T00:15:28.670Z,1003.98
2018-08-13T00:16:28.695Z,1003.95
2018-08-13T00:18:28.765Z,1003.97
2018-08-13T00:20:29.134Z,1003.92
2018-08-13T00:21:28.863Z,1003.95
2018-08-13T00:22:28.892Z,1003.92
2018-08-13T00:23:28.882Z,1003.93
2018-08-13T00:24:28.961Z,1003.93
2018-08-13T00:25:28.948Z,1003.88
2018-08-13T00:26:29.280Z,1003.88
2018-08-13T00:27:29.009Z,1003.85
2018-08-13T00:28:29.042Z,1003.82
2018-08-13T00:29:29.124Z,1003.80
2018-08-13T00:30:29.166Z,1003.81
2018-08-13T00:31:29.145Z,1003.84
2018-08-13T00:32:29.174Z,1003.80
2018-08-13T00:33:29.559Z,1003.82
2018-08-13T00:34:29.255Z,1003.81
2018-08-13T00:35:29.280Z,1003.76
2018-08-13T00:36:29.309Z,1003.78
2018-08-13T00:37:29.347Z,1003.75
2018-08-13T00:38:29.428Z,1003.77
2018-08-13T00:39:29.458Z,1003.76
2018-08-13T00:40:29.743Z,1003.76
2018-08-13T00:41:29.477Z,1003.72
2018-08-13T00:42:29.560Z,1003.71
2018-08-13T00:43:29.541Z,1003.73
2018-08-13T00:44:29.623Z,1003.73
2018-08-13T00:45:29.604Z,1003.68
2018-08-13T00:46:29.691Z,1003.71
2018-08-13T00:47:29.979Z,1003.71
2018-08-13T00:48:29.708Z,1003.70
2018-08-13T00:49:29.738Z,1003.68
2018-08-13T00:50:29.818Z,1003.70
2018-08-13T00:51:29.806Z,1003.72
2018-08-13T00:52:29.890Z,1003.70
2018-08-13T00:53:29.867Z,1003.67
2018-08-13T00:54:30.205Z,1003.65
2018-08-13T00:55:29.944Z,1003.64
2018-08-13T00:56:30.017Z,1003.65
2018-08-13T00:57:30.062Z,1003.62
2018-08-13T00:58:30.038Z,1003.59
2018-08-13T00:59:30.077Z,1003.61
2018-08-13T01:00:30.104Z,1003.57
2018-08-13T01:01:30.435Z,1003.62
2018-08-13T01:02:30.221Z,1003.57
2018-08-13T01:03:30.258Z,1003.54
2018-08-13T01:04:30.237Z,1003.55
2018-08-13T01:05:30.264Z,1003.55
2018-08-13T01:06:30.348Z,1003.49
2018-08-13T01:07:30.331Z,1003.50
2018-08-13T01:08:30.663Z,1003.48
2018-08-13T01:09:30.400Z,1003.47
2018-08-13T01:10:30.502Z,1003.41
2018-08-13T01:11:30.471Z,1003.42
2018-08-13T01:12:30.500Z,1003.37
2018-08-13T01:13:30.582Z,1003.33
2018-08-13T01:14:30.567Z,1003.34
2018-08-13T01:15:30.599Z,1003.36
2018-08-13T01:16:30.654Z,1003.32
2018-08-13T01:17:30.671Z,1003.30
2018-08-13T01:18:30.719Z,1003.29
2018-08-13T01:19:30.784Z,1003.30
2018-08-13T01:20:30.821Z,1003.29
2018-08-13T01:21:30.809Z,1003.28
2018-08-13T01:22:30.880Z,1003.30
2018-08-13T01:23:30.893Z,1003.28
2018-08-13T01:24:30.897Z,1003.26
2018-08-13T01:25:30.983Z,1003.28
2018-08-13T01:26:31.013Z,1003.26
2018-08-13T01:27:31.317Z,1003.24
2018-08-13T01:29:31.063Z,1003.23
2018-08-13T01:30:31.151Z,1003.20
2018-08-13T01:31:31.176Z,1003.21
2018-08-13T01:32:31.155Z,1003.19
2018-08-13T01:33:31.538Z,1003.18
2018-08-13T01:35:31.307Z,1003.15
2018-08-13T01:36:31.340Z,1003.18
2018-08-13T01:37:31.326Z,1003.16
2018-08-13T01:38:31.402Z,1003.19
2018-08-13T01:39:31.687Z,1003.17
2018-08-13T01:40:31.419Z,1003.18
2018-08-13T01:41:31.503Z,1003.17
2018-08-13T01:42:31.534Z,1003.13
2018-08-13T01:43:31.517Z,1003.14
2018-08-13T01:44:31.562Z,1003.11
2018-08-13T01:45:31.587Z,1003.08
2018-08-13T01:46:31.970Z,1003.10
2018-08-13T01:47:31.704Z,1003.07
2018-08-13T01:48:31.693Z,1003.10
2018-08-13T01:49:31.717Z,1003.10
2018-08-13T01:51:31.828Z,1003.05
2018-08-13T01:52:31.816Z,1003.08
2018-08-13T01:53:32.148Z,1003.02
2018-08-13T01:54:31.927Z,1003.00
2018-08-13T01:55:31.933Z,1002.98
2018-08-13T01:56:32.005Z,1002.93
2018-08-13T01:57:31.986Z,1002.95
2018-08-13T01:58:32.012Z,1002.94
2018-08-13T01:59:32.052Z,1002.92
2018-08-13T02:00:32.425Z,1002.95
2018-08-13T02:01:32.211Z,1002.92
2018-08-13T02:02:32.200Z,1002.88
2018-08-13T02:03:32.175Z,1002.84
2018-08-13T02:04:32.205Z,1002.83
2018-08-13T02:05:32.291Z,1002.82
2018-08-13T02:06:32.278Z,1002.88
2018-08-13T02:07:32.607Z,1002.88
2018-08-13T02:08:32.337Z,1002.88
2018-08-13T02:09:32.377Z,1002.85
2018-08-13T02:10:32.453Z,1002.80
2018-08-13T02:11:32.490Z,1002.80
2018-08-13T02:12:32.652Z,1002.75
2018-08-13T02:13:32.559Z,1002.77
2018-08-13T02:14:32.845Z,1002.71
2018-08-13T02:15:32.573Z,1002.72
2018-08-13T02:16:32.607Z,1002.69
2018-08-13T02:17:32.688Z,1002.71
2018-08-13T02:18:32.668Z,1002.67
2018-08-13T02:19:32.754Z,1002.59
2018-08-13T02:20:32.743Z,1002.58
2018-08-13T02:22:33.101Z,1002.57
2018-08-13T02:23:32.886Z,1002.55
2018-08-13T02:24:32.917Z,1002.52
2018-08-13T02:25:33.001Z,1002.50
2018-08-13T02:26:32.985Z,1002.51
2018-08-13T02:27:33.017Z,1002.48
2018-08-13T02:28:32.994Z,1002.48
2018-08-13T02:29:33.333Z,1002.47
2018-08-13T02:30:33.108Z,1002.47
2018-08-13T02:31:33.140Z,1002.48
2018-08-13T02:32:33.178Z,1002.45
2018-08-13T02:33:33.178Z,1002.43
2018-08-13T02:34:33.206Z,1002.42
2018-08-13T02:36:33.261Z,1002.35
2018-08-13T02:37:33.663Z,1002.35
2018-08-13T02:38:33.381Z,1002.31
2018-08-13T02:39:33.368Z,1002.29
2018-08-13T02:40:33.386Z,1002.27
2018-08-13T02:41:33.426Z,1002.28
2018-08-13T02:42:33.504Z,1002.26
2018-08-13T02:43:33.543Z,1002.33
2018-08-13T02:44:33.822Z,1002.37
2018-08-13T02:45:33.615Z,1002.32
2018-08-13T02:46:33.633Z,1002.31
2018-08-13T02:47:33.619Z,1002.26
2018-08-13T02:48:33.653Z,1002.27
2018-08-13T02:49:33.738Z,1002.22
2018-08-13T02:50:33.765Z,1002.22
2018-08-13T02:51:33.797Z,1002.19
2018-08-13T02:52:33.780Z,1002.19
2018-08-13T02:53:33.812Z,1002.19
2018-08-13T02:54:33.902Z,1002.22
2018-08-13T02:55:33.889Z,1002.27
2018-08-13T02:56:33.962Z,1002.28
2018-08-13T02:57:34.300Z,1002.30
2018-08-13T02:58:33.980Z,1002.27
2018-08-13T02:59:34.012Z,1002.25
2018-08-13T03:00:34.041Z,1002.28
2018-08-13T03:01:34.128Z,1002.28
2018-08-13T03:02:34.170Z,1002.28
2018-08-13T03:04:34.283Z,1002.21
2018-08-13T03:05:34.517Z,1002.20
2018-08-13T03:06:34.292Z,1002.22
2018-08-13T03:07:34.327Z,1002.24
2018-08-13T03:08:34.313Z,1002.29
2018-08-13T03:09:34.339Z,1002.26
2018-08-13T03:10:34.373Z,1002.26
2018-08-13T03:11:34.520Z,1002.30
2018-08-13T03:12:34.484Z,1002.42
2018-08-13T03:13:34.518Z,1002.59
2018-08-13T03:14:34.551Z,1002.89
2018-08-13T03:15:34.589Z,1002.82
2018-08-13T03:16:34.568Z,1002.93
2018-08-13T03:17:34.655Z,1002.89
2018-08-13T03:18:34.940Z,1002.90
2018-08-13T03:19:34.719Z,1003.06
2018-08-13T03:20:34.753Z,1003.05
2018-08-13T03:21:34.733Z,1002.95
2018-08-13T03:22:34.813Z,1002.91
2018-08-13T03:23:34.848Z,1003.02
2018-08-13T03:25:34.863Z,1003.06
2018-08-13T03:26:34.944Z,1002.94
2018-08-13T03:27:34.928Z,1002.96
2018-08-13T03:28:35.017Z,1003.08
2018-08-13T03:30:35.075Z,1002.96
2018-08-13T03:31:35.112Z,1003.04
2018-08-13T03:32:35.495Z,1003.03
2018-08-13T03:33:35.171Z,1002.98
2018-08-13T03:34:35.211Z,1002.99
2018-08-13T03:35:35.196Z,1003.01
2018-08-13T03:36:35.276Z,1003.00
2018-08-13T03:37:35.260Z,1002.99
2018-08-13T03:38:35.338Z,1002.98
2018-08-13T03:39:35.634Z,1002.98
2018-08-13T03:40:35.351Z,1002.99
2018-08-13T03:41:35.441Z,1002.98
2018-08-13T03:42:35.476Z,1002.96
2018-08-13T03:43:35.453Z,1002.99
2018-08-13T03:44:35.533Z,1002.96
2018-08-13T03:45:35.518Z,1002.91
2018-08-13T03:46:35.851Z,1002.94
2018-08-13T03:47:35.580Z,1002.92
2018-08-13T03:48:35.675Z,1002.94
2018-08-13T03:49:35.654Z,1002.95
2018-08-13T03:50:35.733Z,1002.95
2018-08-13T03:52:35.759Z,1003.03
2018-08-13T03:53:36.135Z,1003.06
2018-08-13T03:54:35.864Z,1003.09
2018-08-13T03:55:35.842Z,1003.11
2018-08-13T03:56:35.929Z,1003.18
2018-08-13T03:57:35.966Z,1003.21
2018-08-13T03:58:35.989Z,1003.23
2018-08-13T03:59:36.027Z,1003.24
2018-08-13T04:00:36.005Z,1003.22
2018-08-13T04:02:36.130Z,1003.24
2018-08-13T04:03:36.115Z,1003.24
2018-08-13T04:04:36.189Z,1003.28
2018-08-13T04:05:36.474Z,1003.29
2018-08-13T04:06:36.261Z,1003.33
2018-08-13T04:07:36.238Z,1003.33
2018-08-13T04:08:36.270Z,1003.28
2018-08-13T04:09:36.355Z,1003.35
2018-08-13T04:10:36.339Z,1003.38
2018-08-13T04:11:36.722Z,1003.33
2018-08-13T04:12:36.400Z,1003.36
2018-08-13T04:13:36.440Z,1003.40
2018-08-13T04:14:36.529Z,1003.40
2018-08-13T04:15:36.500Z,1003.43
2018-08-13T04:16:36.590Z,1003.46
2018-08-13T04:17:36.571Z,1003.43
2018-08-13T04:19:36.956Z,1003.41
2018-08-13T04:20:36.670Z,1003.44
2018-08-13T04:21:36.748Z,1003.40
2018-08-13T04:22:36.785Z,1003.39
2018-08-13T04:23:36.763Z,1003.42
2018-08-13T04:24:36.796Z,1003.43
2018-08-13T04:25:36.883Z,1003.49
2018-08-13T04:26:37.168Z,1003.48
2018-08-13T04:27:36.957Z,1003.46
2018-08-13T04:29:37.007Z,1003.44
2018-08-13T04:30:37.052Z,1003.38
2018-08-13T04:31:37.096Z,1003.40
2018-08-13T04:32:37.120Z,1003.39
2018-08-13T04:33:37.397Z,1003.46
2018-08-13T04:34:37.185Z,1003.45
2018-08-13T04:35:37.159Z,1003.48
2018-08-13T04:36:37.189Z,1003.53
2018-08-13T04:37:37.276Z,1003.52
2018-08-13T04:38:37.343Z,1003.50
2018-08-13T04:39:37.312Z,1003.50
2018-08-13T04:40:37.378Z,1003.55
2018-08-13T04:41:37.357Z,1003.55
2018-08-13T04:42:37.443Z,1003.59
2018-08-13T04:44:37.501Z,1003.60
2018-08-13T04:45:37.487Z,1003.62
2018-08-13T04:46:37.824Z,1003.63
2018-08-13T04:47:37.549Z,1003.61
2018-08-13T04:48:37.636Z,1003.61
2018-08-13T04:49:37.618Z,1003.63
2018-08-13T04:50:37.696Z,1003.62
2018-08-13T04:51:37.682Z,1003.64
2018-08-13T04:52:37.711Z,1003.64
2018-08-13T04:53:38.103Z,1003.61
2018-08-13T04:54:37.834Z,1003.59
2018-08-13T04:55:37.871Z,1003.59
2018-08-13T04:57:37.879Z,1003.53
2018-08-13T04:58:37.965Z,1003.54
2018-08-13T04:59:37.998Z,1003.51
2018-08-13T05:00:38.327Z,1003.53
2018-08-13T05:01:38.009Z,1003.47
2018-08-13T05:02:38.040Z,1003.54
2018-08-13T05:03:38.130Z,1003.53
2018-08-13T05:04:38.115Z,1003.53
2018-08-13T05:05:38.138Z,1003.46
2018-08-13T05:06:38.220Z,1003.44
2018-08-13T05:07:38.604Z,1003.42
2018-08-13T05:08:38.292Z,1003.41
2018-08-13T05:10:38.307Z,1003.48
2018-08-13T05:11:38.339Z,1003.40
2018-08-13T05:12:38.368Z,1003.36
2018-08-13T05:13:38.449Z,1003.35
2018-08-13T05:14:38.739Z,1003.38
2018-08-13T05:15:38.522Z,1003.41
2018-08-13T05:16:38.558Z,1003.38
2018-08-13T05:17:38.531Z,1003.36
2018-08-13T05:18:38.615Z,1003.35
2018-08-13T05:19:38.672Z,1003.33
2018-08-13T05:20:38.681Z,1003.39
2018-08-13T05:21:38.671Z,1003.33
2018-08-13T05:22:38.696Z,1003.23
2018-08-13T05:23:38.786Z,1003.16
2018-08-13T05:24:38.819Z,1003.15
2018-08-13T05:25:38.845Z,1003.11
2018-08-13T05:26:38.886Z,1003.13
2018-08-13T05:27:39.162Z,1003.34
2018-08-13T05:28:38.893Z,1003.44
2018-08-13T05:29:38.940Z,1003.60
2018-08-13T05:30:38.962Z,1003.69
2018-08-13T05:31:38.996Z,1003.69
2018-08-13T05:32:39.094Z,1003.70
2018-08-13T05:33:39.366Z,1003.72
2018-08-13T05:34:39.145Z,1003.75
2018-08-13T05:35:39.126Z,1003.74
2018-08-13T05:36:39.213Z,1003.78
2018-08-13T05:37:39.197Z,1003.81
2018-08-13T05:38:39.277Z,1003.93
2018-08-13T05:40:39.589Z,1003.87
2018-08-13T05:41:39.388Z,1003.88
2018-08-13T05:42:39.472Z,1003.90
2018-08-13T05:43:39.386Z,1003.80
2018-08-13T05:44:39.429Z,1003.79
2018-08-13T05:45:39.508Z,1003.78
2018-08-13T05:47:39.529Z,1003.89
2018-08-13T05:48:39.560Z,1003.83
2018-08-13T05:49:39.590Z,1003.81
2018-08-13T05:51:39.701Z,1003.64
2018-08-13T05:52:39.991Z,1003.60
2018-08-13T05:53:39.716Z,1003.53
2018-08-13T05:54:39.804Z,1003.47
2018-08-13T05:55:39.781Z,1003.42
2018-08-13T05:56:39.918Z,1003.37
2018-08-13T05:57:39.899Z,1003.31
2018-08-13T05:58:39.933Z,1003.27
2018-08-13T05:59:40.212Z,1003.20
2018-08-13T06:00:39.941Z,1003.08
2018-08-13T06:01:40.032Z,1002.85
2018-08-13T06:02:40.062Z,1002.71
2018-08-13T06:03:40.093Z,1002.69
2018-08-13T06:04:40.078Z,1002.68
2018-08-13T06:05:40.110Z,1002.72
2018-08-13T06:06:40.442Z,1002.72
2018-08-13T06:07:40.223Z,1002.67
2018-08-13T06:08:40.256Z,1002.57
2018-08-13T06:09:40.235Z,1002.43
2018-08-13T06:10:40.273Z,1002.34
2018-08-13T06:11:40.384Z,1002.37
2018-08-13T06:12:40.678Z,1002.39
2018-08-13T06:13:41.115Z,1002.41
2018-08-13T06:14:40.459Z,1002.54
2018-08-13T06:15:40.439Z,1002.59
2018-08-13T06:16:40.474Z,1002.59
2018-08-13T06:17:40.499Z,1002.57
2018-08-13T06:18:40.581Z,1002.48
2018-08-13T06:19:40.617Z,1002.49
2018-08-13T06:20:40.655Z,1002.49
2018-08-13T06:21:40.631Z,1002.45
2018-08-13T06:22:40.709Z,1002.45
2018-08-13T06:23:40.694Z,1002.39
2018-08-13T06:24:40.731Z,1002.47
2018-08-13T06:25:40.813Z,1002.45
2018-08-13T06:26:41.093Z,1002.49
2018-08-13T06:27:40.825Z,1002.53
2018-08-13T06:28:40.861Z,1002.57
2018-08-13T06:29:40.946Z,1002.58
2018-08-13T06:31:40.955Z,1002.59
2018-08-13T06:32:41.309Z,1002.60
2018-08-13T06:33:41.073Z,1002.63
2018-08-13T06:34:41.117Z,1002.71
2018-08-13T06:35:41.093Z,1002.79
2018-08-13T06:36:41.125Z,1002.82
2018-08-13T06:38:41.298Z,1002.79
2018-08-13T06:39:41.543Z,1002.75
2018-08-13T06:40:41.255Z,1002.71
2018-08-13T06:41:41.391Z,1002.76
2018-08-13T06:42:41.324Z,1002.77
2018-08-13T06:43:41.397Z,1002.83
2018-08-13T06:44:41.385Z,1002.83
2018-08-13T06:45:41.719Z,1002.87
2018-08-13T06:46:41.502Z,1002.90
2018-08-13T06:47:41.494Z,1002.87
2018-08-13T06:48:41.582Z,1002.92
2018-08-13T06:49:41.600Z,1002.86
2018-08-13T06:50:41.656Z,1002.90
2018-08-13T06:51:41.610Z,1002.97
2018-08-13T06:52:41.652Z,1002.99
2018-08-13T06:53:41.732Z,1003.03
2018-08-13T06:54:41.765Z,1003.07
2018-08-13T06:55:41.791Z,1003.10
2018-08-13T06:56:41.835Z,1003.09
2018-08-13T06:57:42.121Z,1003.13
2018-08-13T06:58:41.893Z,1003.09
2018-08-13T07:01:41.997Z,1003.15
2018-08-13T07:02:42.032Z,1003.23
2018-08-13T07:03:42.011Z,1003.26
2018-08-13T07:04:42.112Z,1003.30
2018-08-13T07:05:42.128Z,1003.27
2018-08-13T07:06:42.115Z,1003.25
2018-08-13T07:07:42.152Z,1003.27
2018-08-13T07:08:42.183Z,1003.30
2018-08-13T07:09:42.356Z,1003.34
2018-08-13T07:10:42.545Z,1003.33
2018-08-13T07:11:42.273Z,1003.33
2018-08-13T07:12:42.306Z,1003.34
2018-08-13T07:13:42.341Z,1003.35
2018-08-13T07:14:42.437Z,1003.38
2018-08-13T07:15:42.492Z,1003.48
2018-08-13T07:16:42.738Z,1003.47
2018-08-13T07:18:42.558Z,1003.55
2018-08-13T07:19:42.597Z,1003.56
2018-08-13T07:20:42.620Z,1003.56
2018-08-13T07:21:42.601Z,1003.60
2018-08-13T07:22:42.942Z,1003.52
2018-08-13T07:23:42.673Z,1003.62
2018-08-13T07:24:42.699Z,1003.72
2018-08-13T07:25:42.785Z,1003.81
2018-08-13T07:26:42.825Z,1003.93
2018-08-13T07:27:42.933Z,1003.98
2018-08-13T07:28:43.135Z,1003.94
2018-08-13T07:29:42.877Z,1003.94
2018-08-13T07:30:42.947Z,1003.88
2018-08-13T07:31:42.986Z,1003.84
2018-08-13T07:32:43.024Z,1003.86
2018-08-13T07:33:43.106Z,1003.82
2018-08-13T07:34:43.077Z,1003.80
2018-08-13T07:35:43.370Z,1003.72
2018-08-13T07:36:43.154Z,1003.77
2018-08-13T07:37:43.131Z,1003.81
2018-08-13T07:38:43.212Z,1003.76
2018-08-13T07:39:43.197Z,1003.73
2018-08-13T07:40:43.279Z,1003.76
2018-08-13T07:41:43.316Z,1003.73
2018-08-13T07:42:43.340Z,1003.78
2018-08-13T07:43:43.373Z,1003.74
2018-08-13T07:44:43.356Z,1003.72
2018-08-13T07:45:43.618Z,1003.73
2018-08-13T07:46:43.482Z,1003.72
2018-08-13T07:47:43.470Z,1003.74
2018-08-13T07:48:43.854Z,1003.71
2018-08-13T07:49:43.587Z,1003.69
2018-08-13T07:50:43.629Z,1003.68
2018-08-13T07:51:43.630Z,1003.65
2018-08-13T07:52:43.674Z,1003.69
2018-08-13T07:53:43.705Z,1003.73
2018-08-13T07:54:43.746Z,1003.70
2018-08-13T07:55:43.775Z,1003.74
2018-08-13T07:56:43.808Z,1003.78
2018-08-13T07:57:43.786Z,1003.77
2018-08-13T07:58:43.826Z,1003.74
2018-08-13T07:59:43.850Z,1003.68
2018-08-13T08:00:43.934Z,1003.60
2018-08-13T08:01:43.968Z,1003.57
2018-08-13T08:02:44.012Z,1003.54
2018-08-13T08:03:44.036Z,1003.53
2018-08-13T08:04:44.074Z,1003.58
2018-08-13T08:05:44.105Z,1003.60
2018-08-13T08:06:44.134Z,1003.61
2018-08-13T08:07:44.420Z,1003.61
2018-08-13T08:08:44.205Z,1003.57
2018-08-13T08:09:44.189Z,1003.58
2018-08-13T08:10:44.218Z,1003.50
2018-08-13T08:11:44.247Z,1003.49
2018-08-13T08:12:44.287Z,1003.48
2018-08-13T08:13:44.622Z,1003.51
2018-08-13T08:14:44.499Z,1003.48
2018-08-13T08:15:44.437Z,1003.50
2018-08-13T08:16:44.422Z,1003.57
2018-08-13T08:17:44.500Z,1003.53
2018-08-13T08:18:44.552Z,1003.53
2018-08-13T08:19:44.816Z,1003.50
2018-08-13T08:20:44.689Z,1003.52
2018-08-13T08:21:44.580Z,1003.53
2018-08-13T08:22:44.664Z,1003.56
2018-08-13T08:23:44.656Z,1003.53
2018-08-13T08:24:44.688Z,1003.60
2018-08-13T08:25:44.767Z,1003.59
2018-08-13T08:26:45.048Z,1003.63
2018-08-13T08:27:44.781Z,1003.56
2018-08-13T08:28:44.814Z,1003.54
2018-08-13T08:29:44.850Z,1003.53
2018-08-13T08:30:44.931Z,1003.54
2018-08-13T08:31:44.971Z,1003.55
2018-08-13T08:32:44.958Z,1003.54
2018-08-13T08:33:45.277Z,1003.56
2018-08-13T08:34:45.049Z,1003.59
2018-08-13T08:35:45.042Z,1003.59
2018-08-13T08:36:45.131Z,1003.55
2018-08-13T08:37:45.118Z,1003.54
2018-08-13T08:38:45.202Z,1003.57
2018-08-13T08:39:45.178Z,1003.50
2018-08-13T08:40:45.526Z,1003.58
2018-08-13T08:42:45.280Z,1003.65
2018-08-13T08:43:45.359Z,1003.66
2018-08-13T08:44:45.343Z,1003.68
2018-08-13T08:45:45.430Z,1003.68
2018-08-13T08:46:45.460Z,1003.69
2018-08-13T08:47:45.803Z,1003.66
2018-08-13T08:48:45.532Z,1003.66
2018-08-13T08:49:45.565Z,1003.66
2018-08-13T08:50:45.598Z,1003.68
2018-08-13T08:51:45.580Z,1003.74
2018-08-13T08:52:45.615Z,1003.69
2018-08-13T08:53:45.694Z,1003.70
2018-08-13T08:54:45.984Z,1003.68
2018-08-13T08:55:45.763Z,1003.67
2018-08-13T08:56:45.754Z,1003.73
2018-08-13T08:57:45.832Z,1003.70
2018-08-13T08:58:45.873Z,1003.72
2018-08-13T08:59:45.847Z,1003.74
2018-08-13T09:00:45.945Z,1003.76
2018-08-13T09:01:46.214Z,1003.73
2018-08-13T09:02:45.957Z,1003.76
2018-08-13T09:03:45.990Z,1003.71
2018-08-13T09:04:46.020Z,1003.73
2018-08-13T09:05:46.155Z,1003.80
2018-08-13T09:06:46.133Z,1003.77
2018-08-13T09:07:46.115Z,1003.72
2018-08-13T09:08:46.203Z,1003.76
2018-08-13T09:09:46.181Z,1003.73
2018-08-13T09:10:46.217Z,1003.70
2018-08-13T09:11:46.301Z,1003.64
2018-08-13T09:12:46.297Z,1003.64
2018-08-13T09:13:46.319Z,1003.65
2018-08-13T09:14:46.661Z,1003.67
2018-08-13T09:15:46.449Z,1003.66
2018-08-13T09:16:46.431Z,1003.68
2018-08-13T09:17:46.461Z,1003.68
2018-08-13T09:18:46.543Z,1003.66
2018-08-13T09:19:46.532Z,1003.63
2018-08-13T09:20:46.611Z,1003.63
2018-08-13T09:21:46.591Z,1003.59
2018-08-13T09:22:46.624Z,1003.63
2018-08-13T09:24:46.751Z,1003.58
2018-08-13T09:25:46.728Z,1003.60
2018-08-13T09:26:46.813Z,1003.71
2018-08-13T09:27:47.102Z,1003.64
2018-08-13T09:28:46.884Z,1003.63
2018-08-13T09:29:46.871Z,1003.59
2018-08-13T09:30:46.960Z,1003.59
2018-08-13T09:31:46.932Z,1003.55
2018-08-13T09:32:46.967Z,1003.54
2018-08-13T09:33:47.153Z,1003.52
2018-08-13T09:34:47.085Z,1003.54
2018-08-13T09:35:47.070Z,1003.53
2018-08-13T09:36:47.187Z,1003.53
2018-08-13T09:37:47.143Z,1003.53
2018-08-13T09:38:47.229Z,1003.55
2018-08-13T09:39:47.512Z,1003.52
2018-08-13T09:40:47.243Z,1003.52
2018-08-13T09:41:47.290Z,1003.49
2018-08-13T09:42:47.360Z,1003.48
2018-08-13T09:43:47.389Z,1003.52
2018-08-13T09:44:47.536Z,1003.53
2018-08-13T09:45:47.408Z,1003.44
2018-08-13T09:46:47.506Z,1003.48
2018-08-13T09:47:47.482Z,1003.47
2018-08-13T09:48:47.567Z,1003.46
2018-08-13T09:49:47.550Z,1003.48
2018-08-13T09:50:47.590Z,1003.41
2018-08-13T09:51:47.620Z,1003.40
2018-08-13T09:52:47.947Z,1003.36
2018-08-13T09:53:47.772Z,1003.32
2018-08-13T09:54:47.773Z,1003.36
2018-08-13T09:55:47.763Z,1003.28
2018-08-13T09:56:47.792Z,1003.34
2018-08-13T09:57:47.819Z,1003.31
2018-08-13T09:58:47.853Z,1003.30
2018-08-13T09:59:48.198Z,1003.29
2018-08-13T10:00:48.024Z,1003.31
2018-08-13T10:01:47.963Z,1003.30
2018-08-13T10:02:48.045Z,1003.24
2018-08-13T10:03:48.092Z,1003.29
2018-08-13T10:04:48.112Z,1003.28
2018-08-13T10:05:48.181Z,1003.25
2018-08-13T10:06:48.182Z,1003.25
2018-08-13T10:07:48.221Z,1003.29
2018-08-13T10:08:48.246Z,1003.24
2018-08-13T10:09:48.260Z,1003.29
2018-08-13T10:10:48.310Z,1003.27
2018-08-13T10:11:48.357Z,1003.28
2018-08-13T10:12:48.640Z,1003.31
2018-08-13T10:13:48.374Z,1003.34
2018-08-13T10:14:48.458Z,1003.35
2018-08-13T10:15:48.448Z,1003.36
2018-08-13T10:16:48.529Z,1003.34
2018-08-13T10:18:48.608Z,1003.31
2018-08-13T10:19:48.884Z,1003.31
2018-08-13T10:21:48.706Z,1003.29
2018-08-13T10:22:48.732Z,1003.31
2018-08-13T10:23:48.715Z,1003.35
2018-08-13T10:24:48.761Z,1003.32
2018-08-13T10:26:49.134Z,1003.28
2018-08-13T10:27:48.908Z,1003.29
2018-08-13T10:28:48.893Z,1003.28
2018-08-13T10:29:48.998Z,1003.29
2018-08-13T10:30:48.957Z,1003.22
2018-08-13T10:31:49.042Z,1003.23
2018-08-13T10:32:49.328Z,1003.24
2018-08-13T10:33:49.120Z,1003.22
2018-08-13T10:34:49.151Z,1003.23
2018-08-13T10:35:49.181Z,1003.27
2018-08-13T10:36:49.169Z,1003.26
2018-08-13T10:37:49.198Z,1003.23
2018-08-13T10:38:49.903Z,1003.24
2018-08-13T10:39:49.270Z,1003.24
2018-08-13T10:40:49.350Z,1003.24
2018-08-13T10:41:49.335Z,1003.22
2018-08-13T10:42:49.424Z,1003.22
2018-08-13T10:43:49.410Z,1003.22
2018-08-13T10:44:49.813Z,1003.23
2018-08-13T10:45:49.541Z,1003.24
2018-08-13T10:46:49.570Z,1003.23
2018-08-13T10:47:49.619Z,1003.21
2018-08-13T10:48:49.637Z,1003.23
2018-08-13T10:49:49.677Z,1003.19
2018-08-13T10:50:49.707Z,1003.15
2018-08-13T10:51:49.982Z,1003.16
2018-08-13T10:52:49.768Z,1003.17
2018-08-13T10:53:49.817Z,1003.15
2018-08-13T10:54:49.842Z,1003.09
2018-08-13T10:55:49.843Z,1003.06
2018-08-13T10:56:49.869Z,1003.08
2018-08-13T10:57:49.896Z,1003.04
2018-08-13T10:58:50.238Z,1003.01
2018-08-13T10:59:50.014Z,1003.05
2018-08-13T11:00:50.003Z,1003.00
2018-08-13T11:01:50.087Z,1003.03
2018-08-13T11:02:50.131Z,1002.96
2018-08-13T11:03:50.159Z,1002.96
2018-08-13T11:04:50.195Z,1002.96
2018-08-13T11:05:50.482Z,1002.99
2018-08-13T11:06:50.256Z,1002.96
2018-08-13T11:07:50.245Z,1002.95
2018-08-13T11:08:50.329Z,1002.97
2018-08-13T11:09:50.422Z,1002.94
2018-08-13T11:10:50.352Z,1002.94
2018-08-13T11:11:50.436Z,1002.94
2018-08-13T11:12:50.724Z,1002.87
2018-08-13T11:13:50.456Z,1002.90
2018-08-13T11:14:50.542Z,1002.93
2018-08-13T11:15:50.577Z,1002.87
2018-08-13T11:16:50.557Z,1002.88
2018-08-13T11:17:50.595Z,1002.88
2018-08-13T11:18:50.681Z,1002.87
2018-08-13T11:19:50.712Z,1002.80
2018-08-13T11:20:50.714Z,1002.82
2018-08-13T11:21:50.841Z,1002.80
2018-08-13T11:22:50.772Z,1002.75
2018-08-13T11:23:50.803Z,1002.76
2018-08-13T11:24:50.886Z,1002.75
2018-08-13T11:25:51.186Z,1002.74
2018-08-13T11:26:50.961Z,1002.67
2018-08-13T11:27:50.940Z,1002.70
2018-08-13T11:28:51.027Z,1002.65
2018-08-13T11:29:51.012Z,1002.66
2018-08-13T11:30:51.096Z,1002.60
2018-08-13T11:31:51.084Z,1002.61
2018-08-13T11:32:51.114Z,1002.60
2018-08-13T11:33:51.213Z,1002.54
2018-08-13T11:34:51.196Z,1002.55
2018-08-13T11:35:51.234Z,1002.52
2018-08-13T11:36:51.253Z,1002.52
2018-08-13T11:37:51.326Z,1002.56
2018-08-13T11:38:51.630Z,1002.52
2018-08-13T11:39:51.415Z,1002.55
2018-08-13T11:40:51.399Z,1002.52
2018-08-13T11:41:51.480Z,1002.50
2018-08-13T11:42:51.466Z,1002.51
2018-08-13T11:43:51.554Z,1002.49
2018-08-13T11:44:51.839Z,1002.45
2018-08-13T11:45:51.568Z,1002.46
2018-08-13T11:46:51.661Z,1002.41
2018-08-13T11:47:51.692Z,1002.41
2018-08-13T11:48:51.726Z,1002.40
2018-08-13T11:49:51.761Z,1002.40
2018-08-13T11:50:52.044Z,1002.39
2018-08-13T11:51:51.838Z,1002.33
2018-08-13T11:52:51.871Z,1002.35
2018-08-13T11:53:51.901Z,1002.31
2018-08-13T11:54:51.936Z,1002.24
2018-08-13T11:55:51.919Z,1002.25
2018-08-13T11:56:52.008Z,1002.18
2018-08-13T11:57:52.294Z,1002.11
2018-08-13T11:59:52.057Z,1002.02
2018-08-13T12:00:52.216Z,1001.92
2018-08-13T12:01:52.138Z,1001.94
2018-08-13T12:02:52.216Z,1001.93
2018-08-13T12:03:52.257Z,1001.92
2018-08-13T12:04:52.539Z,1001.91
2018-08-13T12:05:52.321Z,1001.95
2018-08-13T12:06:52.362Z,1001.98
2018-08-13T12:07:52.353Z,1001.96
2018-08-13T12:08:52.433Z,1001.99
2018-08-13T12:09:52.413Z,1002.00
2018-08-13T12:10:52.499Z,1001.96
2018-08-13T12:11:52.485Z,1002.01
2018-08-13T12:12:52.527Z,1002.01
2018-08-13T12:13:52.600Z,1002.16
2018-08-13T12:14:52.638Z,1002.38
2018-08-13T12:15:52.617Z,1002.62
2018-08-13T12:16:53.020Z,1002.80
2018-08-13T12:17:52.995Z,1002.89
2018-08-13T12:18:52.776Z,1002.98
2018-08-13T12:19:52.810Z,1002.86
2018-08-13T12:20:52.797Z,1002.84
2018-08-13T12:21:52.887Z,1002.82
2018-08-13T12:22:52.930Z,1002.91
2018-08-13T12:23:52.917Z,1002.91
2018-08-13T12:24:53.281Z,1002.98
2018-08-13T12:25:53.027Z,1002.95
2018-08-13T12:26:53.059Z,1002.99
2018-08-13T12:27:53.095Z,1003.04
2018-08-13T12:28:53.075Z,1003.00
2018-08-13T12:29:53.116Z,1002.98
2018-08-13T12:30:53.198Z,1002.91
2018-08-13T12:31:53.226Z,1002.83
2018-08-13T12:32:53.208Z,1002.84
2018-08-13T12:33:53.245Z,1002.84
2018-08-13T12:34:53.332Z,1002.78
2018-08-13T12:35:53.375Z,1002.79
2018-08-13T12:36:53.351Z,1002.76
2018-08-13T12:41:53.586Z,1002.81
2018-08-13T12:42:53.661Z,1002.83
2018-08-13T12:43:53.894Z,1002.77
2018-08-13T12:44:54.409Z,1002.77